AirNav   SIMCOM
 
 601 users online  

WN55 Randle-Kiona Airpark
Randle, Washington, USA


FAA INFORMATION EFFECTIVE 07 DECEMBER 2017

Location

FAA Identifier: WN55
Lat/Long: 46-30-41.3990N / 122-00-22.3390W
46-30.689983N / 122-00.372317W
46.5114997 / -122.0062053
(estimated)
Elevation: 934 ft. / 284.7 m (surveyed)
Variation: 20E (1985)
From city: 3 miles SW of RANDLE, WA
Time zone: UTC -8 (UTC -7 during Daylight Saving Time)
Zip code: 98377

Airport Operations

Airport use: Private use. Permission required prior to landing
Activation date: 08/1985
Control tower: no
ARTCC: SEATTLE CENTER
FSS: SEATTLE FLIGHT SERVICE STATION
Attendance: UNATNDD
Wind indicator: yes
Segmented circle: no

Nearby radio navigation aids

NDB name  Hdg/Dist  Freq  Var  ID
LACOMAS127/37.432816ELAC .-.. .- -.-.

Airport Services

Runway Information

Runway 7/25

Dimensions: 2400 x 32 ft. / 732 x 10 m
800X200 GRASS OVERRUN WEST END OF RWY
Surface: turf
RUNWAY 7  RUNWAY 25
Traffic pattern: leftleft
Obstructions: none60 ft. trees, 400 ft. from runway

Airport Ownership and Management from official FAA records

Ownership: Privately-owned
Owner: AIRPARK ASSOC. /STEVE JASMER
113 JEFFREY LN
RANDLE, WA 98377
Phone 253-279-2425
Manager: AIRPARK ASSOC. /STEVE JASMER
113 JEFFREY LN
RANDLE, WA 98377
Phone 253-279-2425

Airport Operational Statistics

Aircraft based on the field: 11
Single engine airplanes: 11
    

Additional Remarks

CTN: DEER ON & INVOF ARPT.
USE STEEP APPROACH TO RUNWAY 25.
TAXI ON RY ONLY, OFF RY IS ROUGH.

Instrument Procedures

There are no published instrument procedures at WN55.

Some nearby airports with instrument procedures:

KTDO - Ed Carlson Memorial Field - South Lewis Co Airport (33 nm W)
KPLU - Pierce County Airport - Thun Field (37 nm N)
KGRF - Gray Army Airfield (Joint Base Lewis-McChord) (41 nm NW)
KCLS - Chehalis-Centralia Airport (41 nm W)
KTCM - McChord Field Airport (Joint Base Lewis-McChord) (42 nm NW)
 
Loc | Ops | Rwys | IFR | FBO | Links
Com | Nav | Svcs | Stats | Notes


 
Area around WN55 (Randle-Kiona Airpark)
 
Road maps at: MapQuest Bing Google
 
Aerial photo
WARNING: Photo may not be current or correct
Aerial photo of WN55 (Randle-Kiona Airpark)
Taken mid July 2011
looking west.

Do you have a better or more recent aerial photo of Randle-Kiona Airpark that you would like to share? If so, please send us your photo.

 
Sectional chart

 
Airport distance calculator
Flying to Randle-Kiona Airpark? Find the distance to fly.

From to WN55

Sunrise and sunset
Times for 16-Dec-2017
 Local
(UTC-8)
 Zulu
(UTC)
Morning civil twilight07:1215:12
Sunrise07:4715:47
Sunset16:2000:20
Evening civil twilight16:5500:55

Current date and time
Zulu (UTC)  16-Dec-2017 12:52:34
Local (UTC-8)  16-Dec-2017 04:52:34
 
METAR
KPLU 
37nm N 
161235Z AUTO 00000KT 10SM CLR 04/04 A3029 RMK AO2
KGRF 
40nm NW 
161158Z AUTO 13003KT 10SM BKN130 01/01 A3029 RMK AO2 SLP264 T00130013 10028 20009 51003 $
KTCM 
41nm NW 
161158Z AUTO 00000KT 10SM OVC130 02/02 A3029 RMK AO2 SLP263 70004 T00220022 10040 20014 50003 $
KCLS 
41nm W 
161235Z AUTO 20005KT 10SM BKN023 03/03 A3031 RMK AO2
KKLS 
44nm SW 
161208Z AUTO 14010KT 5SM BR FEW004 SCT023 OVC036 03/02 A3035 RMK AO2
KOLM 
46nm NW 
161154Z AUTO 00000KT 10SM CLR 02/01 A3029 RMK AO2 SLP261 70001 T00170011 10017 20000 52003
TAF
KGRF 
40nm NW 
160507Z 1605/1711 20006KT 9999 SCT020 OVC035 620358 QNH3023INS BECMG 1607/1608 20006KT 6000 BR BKN015 OVC035 620158 QNH3025INS BECMG 1617/1618 20006KT 9999 NSW BKN025 BKN040 620258 QNH3027INS BECMG 1705/1706 20006KT 8000 -SHRA BKN020 OVC035 610208 QNH3014INS TX06/1623Z TN01/1612Z
KTCM 
41nm NW 
160910Z 1609/1711 20006KT 9999 BKN150 QNH3024INS TEMPO 1609/1618 9000 BR BKN015 BECMG 1617/1618 20006KT 9999 BKN025 BKN040 620258 QNH3027INS BECMG 1705/1706 20006KT 8000 -SHRA BKN020 OVC035 610208 QNH3014INS TX06/1623Z TN01/1612Z
KOLM 
46nm NW 
161120Z 1612/1712 00000KT P6SM FEW030 BKN150 TEMPO 1612/1616 2SM BR SCT002 BKN030 FM170600 20005KT P6SM -RA SCT030 BKN040
NOTAMs
Click for the latest NOTAMs
NOTAMs are issued by the DoD/FAA and will open in a separate window not controlled by AirNav.

 

 
 

Would you like to see your business listed on this page?

 If your business provides an interesting product or service to pilots, flight crews, aircraft, or users of the Randle-Kiona Airpark, you should consider listing it here.  To start the listing process, click on the button below
 
Add a business
 

Other Pages about Randle-Kiona Airpark

Update a link
 
Copyright © AirNav, LLC. All rights reserved. Privacy Policy  Contact